createdAt,value
2022-09-26T00:00:42.961Z,1002.83
2022-09-26T00:01:43.203Z,1002.79
2022-09-26T00:02:43.257Z,1002.72
2022-09-26T00:03:43.130Z,1002.73
2022-09-26T00:04:42.949Z,1002.73
2022-09-26T00:05:42.937Z,1002.75
2022-09-26T00:06:42.890Z,1002.73
2022-09-26T00:07:42.874Z,1002.74
2022-09-26T00:08:42.887Z,1002.73
2022-09-26T00:09:42.883Z,1002.71
2022-09-26T00:10:42.833Z,1002.74
2022-09-26T00:11:42.824Z,1002.68
2022-09-26T00:12:42.797Z,1002.68
2022-09-26T00:13:42.787Z,1002.65
2022-09-26T00:14:42.778Z,1002.67
2022-09-26T00:15:42.854Z,1002.63
2022-09-26T00:16:42.797Z,1002.60
2022-09-26T00:17:42.739Z,1002.62
2022-09-26T00:18:42.723Z,1002.59
2022-09-26T00:19:42.704Z,1002.56
2022-09-26T00:20:42.691Z,1002.51
2022-09-26T00:21:42.705Z,1002.51
2022-09-26T00:22:42.674Z,1002.53
2022-09-26T00:23:42.654Z,1002.54
2022-09-26T00:24:42.641Z,1002.55
2022-09-26T00:25:42.632Z,1002.53
2022-09-26T00:26:43.599Z,1002.49
2022-09-26T00:27:42.651Z,1002.47
2022-09-26T00:28:42.642Z,1002.46
2022-09-26T00:29:42.587Z,1002.41
2022-09-26T00:30:42.632Z,1002.40
2022-09-26T00:31:42.609Z,1002.39
2022-09-26T00:32:42.534Z,1002.40
2022-09-26T00:33:42.538Z,1002.44
2022-09-26T00:34:42.520Z,1002.42
2022-09-26T00:35:42.576Z,1002.40
2022-09-26T00:36:42.626Z,1002.40
2022-09-26T00:37:43.537Z,1002.40
2022-09-26T00:38:42.474Z,1002.39
2022-09-26T00:39:42.449Z,1002.37
2022-09-26T00:40:42.496Z,1002.36
2022-09-26T00:41:42.506Z,1002.31
2022-09-26T00:42:42.470Z,1002.30
2022-09-26T00:43:42.429Z,1002.34
2022-09-26T00:44:42.403Z,1002.25
2022-09-26T00:45:42.623Z,1002.27
2022-09-26T00:46:42.675Z,1002.23
2022-09-26T00:47:42.358Z,1002.15
2022-09-26T00:48:42.388Z,1002.16
2022-09-26T00:49:42.344Z,1002.12
2022-09-26T00:50:42.309Z,1002.15
2022-09-26T00:51:42.297Z,1002.14
2022-09-26T00:52:42.426Z,1002.13
2022-09-26T00:53:43.538Z,1002.13
2022-09-26T00:54:42.291Z,1002.12
2022-09-26T00:55:42.292Z,1002.13
2022-09-26T00:56:43.256Z,1002.13
2022-09-26T00:57:42.355Z,1002.12
2022-09-26T00:58:42.297Z,1002.13
2022-09-26T00:59:42.194Z,1002.10
2022-09-26T01:00:42.554Z,1002.08
2022-09-26T01:01:42.292Z,1002.10
2022-09-26T01:02:42.240Z,1002.14
2022-09-26T01:03:42.158Z,1002.10
2022-09-26T01:04:42.139Z,1002.14
2022-09-26T01:05:43.419Z,1002.08
2022-09-26T01:06:43.080Z,1002.08
2022-09-26T01:07:42.099Z,1002.05
2022-09-26T01:08:42.093Z,1002.05
2022-09-26T01:09:42.091Z,1001.98
2022-09-26T01:10:42.046Z,1001.99
2022-09-26T01:11:42.108Z,1001.93
2022-09-26T01:12:42.093Z,1001.90
2022-09-26T01:13:42.015Z,1001.87
2022-09-26T01:14:42.023Z,1001.84
2022-09-26T01:15:42.102Z,1001.83
2022-09-26T01:16:42.336Z,1001.83
2022-09-26T01:17:41.994Z,1001.82
2022-09-26T01:18:43.187Z,1001.84
2022-09-26T01:19:43.103Z,1001.82
2022-09-26T01:20:41.955Z,1001.76
2022-09-26T01:21:41.915Z,1001.77
2022-09-26T01:22:41.952Z,1001.75
2022-09-26T01:23:41.884Z,1001.73
2022-09-26T01:24:42.033Z,1001.72
2022-09-26T01:25:41.926Z,1001.68
2022-09-26T01:26:42.657Z,1001.68
2022-09-26T01:27:41.908Z,1001.69
2022-09-26T01:28:41.865Z,1001.67
2022-09-26T01:29:41.839Z,1001.67
2022-09-26T01:30:41.865Z,1001.66
2022-09-26T01:31:41.832Z,1001.65
2022-09-26T01:32:41.798Z,1001.69
2022-09-26T01:33:41.795Z,1001.65
2022-09-26T01:34:41.816Z,1001.68
2022-09-26T01:35:41.776Z,1001.70
2022-09-26T01:36:42.667Z,1001.71
2022-09-26T01:37:41.715Z,1001.68
2022-09-26T01:38:41.826Z,1001.66
2022-09-26T01:39:41.703Z,1001.65
2022-09-26T01:40:41.785Z,1001.61
2022-09-26T01:41:41.793Z,1001.60
2022-09-26T01:42:41.671Z,1001.56
2022-09-26T01:43:41.937Z,1001.56
2022-09-26T01:44:41.623Z,1001.58
2022-09-26T01:45:41.750Z,1001.55
2022-09-26T01:46:41.684Z,1001.50
2022-09-26T01:47:41.576Z,1001.50
2022-09-26T01:48:41.573Z,1001.54
2022-09-26T01:49:41.584Z,1001.48
2022-09-26T01:50:41.549Z,1001.51
2022-09-26T01:51:41.556Z,1001.49
2022-09-26T01:52:41.516Z,1001.44
2022-09-26T01:53:41.570Z,1001.48
2022-09-26T01:54:41.572Z,1001.46
2022-09-26T01:55:41.551Z,1001.42
2022-09-26T01:56:41.637Z,1001.48
2022-09-26T01:57:42.508Z,1001.45
2022-09-26T01:58:41.470Z,1001.43
2022-09-26T01:59:41.431Z,1001.44
2022-09-26T02:00:41.420Z,1001.42
2022-09-26T02:01:41.443Z,1001.43
2022-09-26T02:02:42.512Z,1001.39
2022-09-26T02:03:41.392Z,1001.42
2022-09-26T02:04:42.350Z,1001.36
2022-09-26T02:05:41.395Z,1001.33
2022-09-26T02:06:41.349Z,1001.31
2022-09-26T02:07:41.348Z,1001.32
2022-09-26T02:08:41.409Z,1001.27
2022-09-26T02:09:41.658Z,1001.26
2022-09-26T02:10:41.451Z,1001.23
2022-09-26T02:11:41.339Z,1001.23
2022-09-26T02:12:41.371Z,1001.23
2022-09-26T02:13:41.262Z,1001.18
2022-09-26T02:14:41.486Z,1001.13
2022-09-26T02:15:41.290Z,1001.17
2022-09-26T02:16:41.280Z,1001.16
2022-09-26T02:17:41.251Z,1001.11
2022-09-26T02:18:41.291Z,1001.14
2022-09-26T02:19:41.225Z,1001.16
2022-09-26T02:20:41.165Z,1001.11
2022-09-26T02:21:41.384Z,1001.15
2022-09-26T02:22:41.194Z,1001.14
2022-09-26T02:23:41.140Z,1001.13
2022-09-26T02:24:41.143Z,1001.16
2022-09-26T02:25:41.513Z,1001.11
2022-09-26T02:26:41.126Z,1001.09
2022-09-26T02:27:41.082Z,1001.12
2022-09-26T02:28:42.551Z,1001.07
2022-09-26T02:29:41.083Z,1001.03
2022-09-26T02:30:41.163Z,1001.04
2022-09-26T02:31:42.393Z,1001.03
2022-09-26T02:32:41.074Z,1001.01
2022-09-26T02:33:41.075Z,1000.99
2022-09-26T02:34:41.023Z,1001.02
2022-09-26T02:35:41.424Z,1001.01
2022-09-26T02:36:41.840Z,1001.02
2022-09-26T02:37:41.063Z,1001.03
2022-09-26T02:38:41.021Z,1000.97
2022-09-26T02:39:40.924Z,1000.93
2022-09-26T02:40:41.097Z,1000.93
2022-09-26T02:41:40.895Z,1000.90
2022-09-26T02:42:41.056Z,1000.89
2022-09-26T02:43:40.894Z,1000.88
2022-09-26T02:44:40.937Z,1000.83
2022-09-26T02:45:42.060Z,1000.83
2022-09-26T02:46:41.736Z,1000.78
2022-09-26T02:47:41.981Z,1000.79
2022-09-26T02:48:41.128Z,1000.78
2022-09-26T02:49:40.868Z,1000.75
2022-09-26T02:50:40.842Z,1000.73
2022-09-26T02:51:40.848Z,1000.76
2022-09-26T02:52:40.761Z,1000.77
2022-09-26T02:53:40.748Z,1000.74
2022-09-26T02:54:40.848Z,1000.69
2022-09-26T02:55:40.799Z,1000.67
2022-09-26T02:56:41.968Z,1000.67
2022-09-26T02:57:41.868Z,1000.61
2022-09-26T02:58:40.698Z,1000.64
2022-09-26T02:59:41.006Z,1000.65
2022-09-26T03:00:40.738Z,1000.63
2022-09-26T03:01:40.714Z,1000.64
2022-09-26T03:02:40.727Z,1000.63
2022-09-26T03:03:40.706Z,1000.62
2022-09-26T03:04:40.752Z,1000.58
2022-09-26T03:05:40.581Z,1000.60
2022-09-26T03:06:40.721Z,1000.57
2022-09-26T03:07:40.600Z,1000.59
2022-09-26T03:08:40.740Z,1000.57
2022-09-26T03:09:40.555Z,1000.60
2022-09-26T03:10:40.601Z,1000.54
2022-09-26T03:11:40.611Z,1000.57
2022-09-26T03:12:41.488Z,1000.56
2022-09-26T03:13:40.578Z,1000.55
2022-09-26T03:14:40.471Z,1000.58
2022-09-26T03:15:40.481Z,1000.51
2022-09-26T03:16:40.624Z,1000.56
2022-09-26T03:17:41.092Z,1000.51
2022-09-26T03:18:40.512Z,1000.51
2022-09-26T03:19:40.483Z,1000.44
2022-09-26T03:20:40.502Z,1000.44
2022-09-26T03:21:40.422Z,1000.42
2022-09-26T03:22:40.377Z,1000.45
2022-09-26T03:23:40.425Z,1000.41
2022-09-26T03:24:40.343Z,1000.38
2022-09-26T03:25:40.514Z,1000.37
2022-09-26T03:26:40.551Z,1000.41
2022-09-26T03:27:40.382Z,1000.35
2022-09-26T03:28:40.362Z,1000.36
2022-09-26T03:29:40.313Z,1000.31
2022-09-26T03:30:40.325Z,1000.35
2022-09-26T03:31:40.365Z,1000.37
2022-09-26T03:32:40.673Z,1000.32
2022-09-26T03:33:40.240Z,1000.29
2022-09-26T03:34:40.227Z,1000.27
2022-09-26T03:35:40.305Z,1000.27
2022-09-26T03:36:40.222Z,1000.24
2022-09-26T03:37:41.134Z,1000.19
2022-09-26T03:38:40.407Z,1000.24
2022-09-26T03:39:40.486Z,1000.20
2022-09-26T03:40:40.206Z,1000.19
2022-09-26T03:41:40.201Z,1000.19
2022-09-26T03:42:40.114Z,1000.20
2022-09-26T03:43:40.106Z,1000.16
2022-09-26T03:44:40.143Z,1000.18
2022-09-26T03:45:40.178Z,1000.20
2022-09-26T03:46:40.412Z,1000.19
2022-09-26T03:47:40.075Z,1000.18
2022-09-26T03:48:40.036Z,1000.15
2022-09-26T03:49:40.044Z,1000.19
2022-09-26T03:50:40.051Z,1000.14
2022-09-26T03:51:40.787Z,1000.14
2022-09-26T03:52:40.030Z,1000.07
2022-09-26T03:53:40.037Z,1000.06
2022-09-26T03:54:40.021Z,1000.08
2022-09-26T03:55:39.978Z,1000.10
2022-09-26T03:56:40.044Z,1000.07
2022-09-26T03:57:40.719Z,999.99
2022-09-26T03:58:39.917Z,999.99
2022-09-26T03:59:39.940Z,1000.04
2022-09-26T04:00:40.174Z,999.99
2022-09-26T04:01:39.898Z,999.97
2022-09-26T04:02:39.898Z,999.95
2022-09-26T04:03:39.918Z,999.93
2022-09-26T04:04:39.858Z,999.95
2022-09-26T04:05:39.829Z,999.94
2022-09-26T04:06:39.831Z,999.91
2022-09-26T04:07:39.900Z,999.92
2022-09-26T04:08:39.809Z,999.91
2022-09-26T04:09:39.848Z,999.91
2022-09-26T04:10:39.749Z,999.92
2022-09-26T04:11:40.704Z,999.88
2022-09-26T04:12:39.810Z,999.87
2022-09-26T04:13:51.285Z,999.86
2022-09-26T04:14:40.706Z,999.87
2022-09-26T04:15:39.729Z,999.83
2022-09-26T04:16:39.933Z,999.79
2022-09-26T04:17:39.679Z,999.78
2022-09-26T04:18:39.663Z,999.78
2022-09-26T04:19:40.492Z,999.78
2022-09-26T04:20:40.049Z,999.74
2022-09-26T04:21:40.462Z,999.69
2022-09-26T04:22:39.812Z,999.73
2022-09-26T04:23:39.590Z,999.69
2022-09-26T04:24:39.904Z,999.66
2022-09-26T04:25:39.862Z,999.64
2022-09-26T04:26:39.586Z,999.66
2022-09-26T04:27:40.024Z,999.65
2022-09-26T04:28:40.564Z,999.61
2022-09-26T04:29:40.571Z,999.63
2022-09-26T04:30:39.535Z,999.59
2022-09-26T04:31:39.671Z,999.57
2022-09-26T04:32:39.462Z,999.56
2022-09-26T04:33:40.335Z,999.53
2022-09-26T04:34:40.279Z,999.51
2022-09-26T04:35:39.533Z,999.51
2022-09-26T04:36:39.465Z,999.51
2022-09-26T04:37:39.444Z,999.50
2022-09-26T04:38:39.406Z,999.44
2022-09-26T04:39:39.406Z,999.51
2022-09-26T04:40:42.828Z,999.44
2022-09-26T04:41:40.599Z,999.45
2022-09-26T04:42:40.496Z,999.39
2022-09-26T04:43:39.323Z,999.42
2022-09-26T04:44:39.430Z,999.38
2022-09-26T04:45:39.392Z,999.37
2022-09-26T04:46:39.842Z,999.38
2022-09-26T04:47:39.454Z,999.34
2022-09-26T04:48:39.512Z,999.29
2022-09-26T04:49:39.298Z,999.28
2022-09-26T04:50:39.345Z,999.29
2022-09-26T04:51:39.305Z,999.28
2022-09-26T04:52:39.301Z,999.31
2022-09-26T04:53:39.304Z,999.26
2022-09-26T04:54:39.232Z,999.23
2022-09-26T04:55:39.221Z,999.23
2022-09-26T04:56:39.185Z,999.23
2022-09-26T04:57:39.180Z,999.25
2022-09-26T04:58:39.158Z,999.21
2022-09-26T04:59:40.403Z,999.23
2022-09-26T05:00:39.207Z,999.20
2022-09-26T05:01:39.249Z,999.18
2022-09-26T05:02:39.197Z,999.15
2022-09-26T05:03:39.130Z,999.15
2022-09-26T05:04:39.058Z,999.11
2022-09-26T05:05:39.113Z,999.11
2022-09-26T05:06:39.734Z,999.12
2022-09-26T05:07:39.053Z,999.06
2022-09-26T05:08:39.014Z,999.06
2022-09-26T05:09:39.040Z,999.07
2022-09-26T05:10:39.001Z,999.04
2022-09-26T05:11:39.076Z,998.98
2022-09-26T05:12:39.315Z,999.04
2022-09-26T05:13:38.958Z,999.02
2022-09-26T05:14:38.930Z,998.99
2022-09-26T05:15:39.000Z,998.98
2022-09-26T05:16:39.851Z,998.96
2022-09-26T05:17:38.916Z,998.95
2022-09-26T05:18:39.866Z,998.95
2022-09-26T05:19:38.932Z,998.94
2022-09-26T05:20:39.441Z,998.95
2022-09-26T05:21:38.991Z,998.98
2022-09-26T05:22:38.867Z,998.96
2022-09-26T05:23:44.371Z,998.96
2022-09-26T05:24:39.822Z,998.94
2022-09-26T05:25:39.004Z,998.91
2022-09-26T05:26:39.850Z,998.93
2022-09-26T05:27:38.845Z,998.92
2022-09-26T05:28:38.803Z,998.95
2022-09-26T05:29:39.565Z,998.93
2022-09-26T05:30:39.670Z,998.93
2022-09-26T05:31:38.759Z,998.88
2022-09-26T05:32:38.734Z,998.87
2022-09-26T05:33:39.692Z,998.83
2022-09-26T05:34:38.698Z,998.82
2022-09-26T05:35:38.715Z,998.83
2022-09-26T05:36:39.075Z,998.80
2022-09-26T05:37:38.649Z,998.80
2022-09-26T05:38:38.643Z,998.84
2022-09-26T05:39:42.461Z,998.85
2022-09-26T05:40:39.581Z,998.86
2022-09-26T05:41:38.603Z,998.87
2022-09-26T05:42:38.594Z,998.87
2022-09-26T05:43:38.563Z,998.85
2022-09-26T05:44:38.596Z,998.83
2022-09-26T05:45:38.615Z,998.85
2022-09-26T05:46:38.586Z,998.83
2022-09-26T05:47:38.707Z,998.86
2022-09-26T05:48:38.526Z,998.85
2022-09-26T05:49:38.602Z,998.83
2022-09-26T05:50:41.640Z,998.85
2022-09-26T05:51:39.446Z,998.77
2022-09-26T05:52:38.438Z,998.79
2022-09-26T05:53:38.427Z,998.83
2022-09-26T05:54:38.407Z,998.81
2022-09-26T05:55:38.518Z,998.84
2022-09-26T05:56:38.394Z,998.83
2022-09-26T05:57:38.575Z,998.84
2022-09-26T05:58:38.478Z,998.86
2022-09-26T05:59:38.470Z,998.84
2022-09-26T06:00:38.360Z,998.84
2022-09-26T06:01:38.586Z,998.81
2022-09-26T06:02:38.428Z,998.82
2022-09-26T06:03:38.291Z,998.72
2022-09-26T06:04:38.309Z,998.79
2022-09-26T06:05:38.295Z,998.76
2022-09-26T06:06:39.730Z,998.80
2022-09-26T06:07:38.291Z,998.76
2022-09-26T06:08:38.273Z,998.80
2022-09-26T06:09:38.219Z,998.79
2022-09-26T06:10:38.279Z,998.77
2022-09-26T06:11:39.122Z,998.78
2022-09-26T06:12:38.247Z,998.75
2022-09-26T06:13:38.183Z,998.80
2022-09-26T06:14:38.149Z,998.74
2022-09-26T06:15:38.227Z,998.73
2022-09-26T06:16:39.197Z,998.67
2022-09-26T06:17:38.142Z,998.72
2022-09-26T06:18:38.129Z,998.72
2022-09-26T06:19:38.086Z,998.73
2022-09-26T06:20:38.155Z,998.72
2022-09-26T06:21:38.181Z,998.69
2022-09-26T06:22:38.071Z,998.65
2022-09-26T06:23:38.049Z,998.65
2022-09-26T06:24:38.108Z,998.64
2022-09-26T06:25:38.006Z,998.64
2022-09-26T06:26:38.092Z,998.63
2022-09-26T06:27:38.107Z,998.60
2022-09-26T06:28:38.063Z,998.63
2022-09-26T06:29:38.119Z,998.61
2022-09-26T06:30:37.964Z,998.60
2022-09-26T06:31:38.025Z,998.59
2022-09-26T06:32:37.991Z,998.58
2022-09-26T06:33:37.967Z,998.58
2022-09-26T06:34:38.015Z,998.52
2022-09-26T06:35:37.924Z,998.55
2022-09-26T06:36:37.915Z,998.54
2022-09-26T06:37:38.027Z,998.52
2022-09-26T06:38:37.879Z,998.49
2022-09-26T06:39:37.847Z,998.48
2022-09-26T06:40:37.883Z,998.40
2022-09-26T06:41:38.825Z,998.41
2022-09-26T06:42:37.955Z,998.38
2022-09-26T06:43:37.834Z,998.43
2022-09-26T06:44:37.854Z,998.37
2022-09-26T06:45:37.748Z,998.38
2022-09-26T06:46:37.857Z,998.37
2022-09-26T06:47:37.731Z,998.33
2022-09-26T06:48:37.711Z,998.34
2022-09-26T06:49:38.347Z,998.40
2022-09-26T06:50:37.738Z,998.36
2022-09-26T06:51:37.708Z,998.35
2022-09-26T06:52:37.708Z,998.31
2022-09-26T06:53:37.683Z,998.29
2022-09-26T06:54:37.712Z,998.30
2022-09-26T06:55:37.721Z,998.29
2022-09-26T06:56:37.750Z,998.28
2022-09-26T06:57:37.660Z,998.29
2022-09-26T06:58:37.590Z,998.28
2022-09-26T06:59:37.680Z,998.26
2022-09-26T07:00:37.656Z,998.26
2022-09-26T07:01:38.063Z,998.27
2022-09-26T07:02:38.324Z,998.25
2022-09-26T07:03:40.560Z,998.22
2022-09-26T07:04:38.571Z,998.24
2022-09-26T07:05:37.515Z,998.19
2022-09-26T07:06:38.452Z,998.19
2022-09-26T07:07:37.495Z,998.20
2022-09-26T07:09:00.850Z,998.21
2022-09-26T07:09:38.559Z,998.17
2022-09-26T07:10:37.422Z,998.21
2022-09-26T07:12:02.729Z,998.20
2022-09-26T07:12:38.512Z,998.18
2022-09-26T07:13:37.383Z,998.21
2022-09-26T07:14:37.572Z,998.15
2022-09-26T07:15:37.491Z,998.19
2022-09-26T07:16:37.510Z,998.16
2022-09-26T07:17:37.350Z,998.18
2022-09-26T07:18:37.322Z,998.20
2022-09-26T07:19:37.319Z,998.19
2022-09-26T07:20:37.436Z,998.14
2022-09-26T07:21:37.294Z,998.13
2022-09-26T07:22:37.296Z,998.12
2022-09-26T07:23:37.255Z,998.15
2022-09-26T07:24:37.287Z,998.10
2022-09-26T07:25:37.351Z,998.13
2022-09-26T07:26:38.673Z,998.13
2022-09-26T07:27:37.235Z,998.13
2022-09-26T07:28:37.366Z,998.13
2022-09-26T07:29:37.204Z,998.14
2022-09-26T07:30:37.195Z,998.20
2022-09-26T07:31:37.320Z,998.15
2022-09-26T07:32:37.178Z,998.11
2022-09-26T07:33:37.167Z,998.11
2022-09-26T07:34:37.114Z,998.13
2022-09-26T07:35:37.226Z,998.10
2022-09-26T07:36:38.072Z,998.16
2022-09-26T07:37:37.110Z,998.09
2022-09-26T07:38:37.209Z,998.04
2022-09-26T07:39:37.107Z,998.07
2022-09-26T07:40:37.247Z,998.01
2022-09-26T07:41:37.069Z,998.04
2022-09-26T07:42:37.306Z,997.97
2022-09-26T07:44:19.403Z,997.96
2022-09-26T07:45:38.130Z,997.98
2022-09-26T07:46:37.051Z,997.98
2022-09-26T07:47:36.962Z,997.97
2022-09-26T07:48:36.950Z,997.97
2022-09-26T07:49:37.000Z,997.95
2022-09-26T07:50:36.940Z,998.00
2022-09-26T07:51:36.919Z,997.96
2022-09-26T07:52:37.249Z,997.99
2022-09-26T07:53:36.994Z,997.99
2022-09-26T07:54:36.974Z,997.98
2022-09-26T07:55:36.853Z,997.99
2022-09-26T07:56:36.883Z,997.99
2022-09-26T07:57:36.992Z,997.96
2022-09-26T07:58:36.822Z,997.97
2022-09-26T07:59:36.802Z,997.94
2022-09-26T08:00:36.862Z,998.00
2022-09-26T08:01:36.991Z,998.01
2022-09-26T08:02:36.844Z,998.01
2022-09-26T08:03:37.628Z,997.95
2022-09-26T08:04:36.764Z,998.06
2022-09-26T08:05:36.767Z,997.90
2022-09-26T08:06:36.765Z,997.96
2022-09-26T08:07:36.748Z,997.98
2022-09-26T08:08:36.696Z,997.94
2022-09-26T08:09:36.694Z,997.90
2022-09-26T08:10:36.713Z,997.92
2022-09-26T08:11:36.719Z,997.86
2022-09-26T08:12:36.716Z,997.91
2022-09-26T08:13:36.619Z,997.87
2022-09-26T08:14:36.736Z,997.83
2022-09-26T08:15:36.603Z,997.89
2022-09-26T08:16:36.817Z,997.87
2022-09-26T08:17:36.671Z,997.85
2022-09-26T08:18:37.509Z,997.88
2022-09-26T08:19:36.608Z,997.88
2022-09-26T08:20:37.491Z,997.81
2022-09-26T08:21:36.507Z,997.84
2022-09-26T08:22:36.577Z,997.82
2022-09-26T08:23:36.521Z,997.86
2022-09-26T08:24:36.464Z,997.82
2022-09-26T08:25:36.558Z,997.79
2022-09-26T08:26:40.451Z,997.81
2022-09-26T08:27:37.492Z,997.75
2022-09-26T08:28:36.428Z,997.79
2022-09-26T08:29:36.953Z,997.78
2022-09-26T08:30:36.704Z,997.77
2022-09-26T08:31:36.498Z,997.73
2022-09-26T08:32:36.541Z,997.73
2022-09-26T08:33:36.388Z,997.72
2022-09-26T08:34:36.410Z,997.72
2022-09-26T08:35:36.323Z,997.73
2022-09-26T08:36:36.624Z,997.74
2022-09-26T08:37:36.310Z,997.71
2022-09-26T08:38:37.351Z,997.69
2022-09-26T08:39:36.743Z,997.70
2022-09-26T08:40:36.341Z,997.65
2022-09-26T08:41:36.355Z,997.65
2022-09-26T08:42:36.267Z,997.64
2022-09-26T08:43:36.255Z,997.68
2022-09-26T08:44:36.842Z,997.65
2022-09-26T08:45:36.213Z,997.65
2022-09-26T08:46:36.545Z,997.62
2022-09-26T08:47:36.249Z,997.61
2022-09-26T08:48:36.235Z,997.58
2022-09-26T08:49:36.161Z,997.55
2022-09-26T08:50:36.135Z,997.56
2022-09-26T08:51:36.128Z,997.56
2022-09-26T08:52:36.115Z,997.55
2022-09-26T08:53:36.587Z,997.47
2022-09-26T08:54:36.123Z,997.48
2022-09-26T08:55:36.080Z,997.52
2022-09-26T08:56:37.131Z,997.48
2022-09-26T08:57:36.347Z,997.48
2022-09-26T08:58:36.163Z,997.44
2022-09-26T08:59:36.079Z,997.41
2022-09-26T09:00:36.814Z,997.41
2022-09-26T09:01:36.064Z,997.42
2022-09-26T09:02:36.199Z,997.39
2022-09-26T09:03:36.176Z,997.42
2022-09-26T09:04:36.098Z,997.40
2022-09-26T09:05:36.031Z,997.41
2022-09-26T09:06:36.895Z,997.35
2022-09-26T09:07:35.977Z,997.43
2022-09-26T09:08:36.070Z,997.34
2022-09-26T09:09:35.938Z,997.36
2022-09-26T09:10:35.919Z,997.40
2022-09-26T09:11:35.896Z,997.34
2022-09-26T09:12:35.852Z,997.32
2022-09-26T09:13:35.922Z,997.44
2022-09-26T09:14:35.855Z,997.37
2022-09-26T09:15:36.882Z,997.27
2022-09-26T09:16:36.343Z,997.28
2022-09-26T09:17:35.858Z,997.26
2022-09-26T09:18:35.942Z,997.26
2022-09-26T09:19:35.822Z,997.23
2022-09-26T09:20:35.815Z,997.22
2022-09-26T09:21:41.471Z,997.25
2022-09-26T09:22:36.795Z,997.21
2022-09-26T09:23:36.254Z,997.14
2022-09-26T09:24:35.761Z,997.18
2022-09-26T09:25:35.793Z,997.18
2022-09-26T09:27:52.729Z,997.10
2022-09-26T09:28:36.644Z,997.09
2022-09-26T09:29:35.691Z,997.14
2022-09-26T09:30:35.635Z,997.13
2022-09-26T09:31:35.646Z,997.12
2022-09-26T09:32:35.594Z,997.14
2022-09-26T09:33:35.644Z,997.14
2022-09-26T09:34:35.590Z,997.19
2022-09-26T09:35:35.676Z,997.12
2022-09-26T09:36:36.227Z,997.11
2022-09-26T09:37:35.577Z,997.07
2022-09-26T09:38:35.574Z,997.08
2022-09-26T09:39:35.742Z,996.99
2022-09-26T09:40:35.613Z,996.94
2022-09-26T09:41:35.499Z,996.94
2022-09-26T09:42:35.468Z,996.92
2022-09-26T09:43:35.484Z,996.91
2022-09-26T09:44:35.590Z,997.02
2022-09-26T09:45:35.438Z,996.95
2022-09-26T09:46:35.560Z,996.94
2022-09-26T09:47:36.539Z,996.93
2022-09-26T09:48:36.207Z,996.95
2022-09-26T09:49:35.508Z,996.91
2022-09-26T09:50:35.385Z,996.89
2022-09-26T09:51:39.111Z,996.95
2022-09-26T09:52:35.382Z,996.93
2022-09-26T09:53:35.319Z,996.90
2022-09-26T09:54:35.356Z,996.97
2022-09-26T09:55:35.301Z,997.06
2022-09-26T09:56:36.460Z,996.92
2022-09-26T09:57:35.728Z,996.87
2022-09-26T09:58:35.267Z,996.89
2022-09-26T09:59:35.797Z,996.88
2022-09-26T10:00:35.241Z,996.89
2022-09-26T10:01:35.253Z,996.89
2022-09-26T10:02:35.367Z,996.92
2022-09-26T10:03:35.241Z,996.93
2022-09-26T10:04:36.207Z,996.88
2022-09-26T10:05:35.270Z,996.88
2022-09-26T10:06:44.651Z,996.82
2022-09-26T10:07:36.335Z,996.86
2022-09-26T10:08:35.206Z,996.80
2022-09-26T10:09:39.514Z,996.79
2022-09-26T10:10:35.187Z,996.82
2022-09-26T10:11:35.138Z,996.82
2022-09-26T10:12:35.156Z,996.81
2022-09-26T10:13:36.128Z,996.86
2022-09-26T10:14:35.248Z,996.87
2022-09-26T10:15:35.106Z,996.85
2022-09-26T10:16:36.206Z,996.81
2022-09-26T10:17:35.986Z,996.81
2022-09-26T10:18:35.287Z,996.77
2022-09-26T10:19:35.142Z,996.75
2022-09-26T10:20:36.209Z,996.77
2022-09-26T10:21:35.007Z,996.73
2022-09-26T10:22:35.300Z,996.76
2022-09-26T10:23:35.028Z,996.78
2022-09-26T10:24:34.950Z,996.74
2022-09-26T10:25:35.730Z,996.74
2022-09-26T10:26:34.992Z,996.67
2022-09-26T10:27:34.950Z,996.70
2022-09-26T10:28:34.902Z,996.70
2022-09-26T10:29:34.873Z,996.70
2022-09-26T10:30:34.924Z,996.67
2022-09-26T10:31:38.587Z,996.67
2022-09-26T10:32:35.882Z,996.65
2022-09-26T10:33:35.063Z,996.62
2022-09-26T10:34:34.790Z,996.61
2022-09-26T10:35:34.838Z,996.64
2022-09-26T10:36:34.848Z,996.62
2022-09-26T10:37:35.594Z,996.60
2022-09-26T10:38:35.505Z,996.59
2022-09-26T10:39:34.906Z,996.63
2022-09-26T10:40:34.765Z,996.59
2022-09-26T10:41:35.243Z,996.55
2022-09-26T10:42:34.871Z,996.56
2022-09-26T10:43:34.707Z,996.57
2022-09-26T10:44:35.231Z,996.56
2022-09-26T10:45:34.677Z,996.60
2022-09-26T10:46:35.829Z,996.58
2022-09-26T10:47:34.739Z,996.56
2022-09-26T10:48:35.058Z,996.52
2022-09-26T10:49:34.627Z,996.51
2022-09-26T10:50:34.614Z,996.48
2022-09-26T10:51:34.619Z,996.46
2022-09-26T10:52:34.603Z,996.51
2022-09-26T10:53:34.630Z,996.50
2022-09-26T10:54:34.559Z,996.45
2022-09-26T10:55:34.530Z,996.48
2022-09-26T10:56:34.559Z,996.49
2022-09-26T10:57:34.522Z,996.46
2022-09-26T10:58:34.548Z,996.52
2022-09-26T10:59:34.622Z,996.54
2022-09-26T11:00:34.478Z,996.50
2022-09-26T11:01:34.557Z,996.46
2022-09-26T11:02:34.434Z,996.48
2022-09-26T11:03:34.643Z,996.49
2022-09-26T11:04:35.570Z,996.49
2022-09-26T11:05:34.522Z,996.48
2022-09-26T11:06:34.505Z,996.42
2022-09-26T11:07:34.484Z,996.46
2022-09-26T11:08:34.654Z,996.38
2022-09-26T11:09:34.360Z,996.40
2022-09-26T11:10:34.437Z,996.38
2022-09-26T11:11:34.334Z,996.34
2022-09-26T11:12:34.663Z,996.32
2022-09-26T11:13:34.295Z,996.36
2022-09-26T11:14:34.289Z,996.32
2022-09-26T11:15:34.288Z,996.22
2022-09-26T11:16:37.283Z,996.23
2022-09-26T11:17:35.033Z,996.20
2022-09-26T11:18:34.267Z,996.17
2022-09-26T11:19:35.230Z,996.20
2022-09-26T11:20:34.383Z,996.13
2022-09-26T11:21:34.259Z,996.15
2022-09-26T11:22:34.330Z,996.12
2022-09-26T11:23:34.198Z,996.10
2022-09-26T11:24:34.377Z,996.14
2022-09-26T11:25:57.966Z,996.05
2022-09-26T11:26:55.369Z,996.04
2022-09-26T11:27:34.900Z,996.01
2022-09-26T11:28:55.301Z,995.98
2022-09-26T11:31:08.327Z,995.93
2022-09-26T11:32:08.233Z,995.98
2022-09-26T11:34:18.366Z,995.93
2022-09-26T11:34:57.306Z,995.87
2022-09-26T11:36:18.336Z,995.92
2022-09-26T11:38:07.422Z,995.89
2022-09-26T11:39:28.368Z,995.83
2022-09-26T11:40:09.943Z,995.87
2022-09-26T11:41:07.364Z,995.82
2022-09-26T11:42:07.344Z,995.87
2022-09-26T11:43:08.276Z,995.86
2022-09-26T11:44:07.861Z,995.82
2022-09-26T11:45:07.520Z,995.82
2022-09-26T11:46:07.404Z,995.79
2022-09-26T11:47:07.634Z,995.77
2022-09-26T11:48:08.254Z,995.77
2022-09-26T11:49:07.247Z,995.67
2022-09-26T11:50:07.450Z,995.72
2022-09-26T11:51:07.376Z,995.69
2022-09-26T11:52:07.196Z,995.65
2022-09-26T11:53:07.208Z,995.63
2022-09-26T11:54:07.162Z,995.65
2022-09-26T11:55:07.309Z,995.64
2022-09-26T11:56:07.169Z,995.67
2022-09-26T11:57:07.160Z,995.69
2022-09-26T11:58:07.135Z,995.63
2022-09-26T11:59:07.281Z,995.66
2022-09-26T12:00:07.214Z,995.65
2022-09-26T12:01:07.202Z,995.62
2022-09-26T12:02:07.985Z,995.62
2022-09-26T12:03:07.159Z,995.59
2022-09-26T12:04:07.695Z,995.61
2022-09-26T12:05:08.213Z,995.62
2022-09-26T12:06:07.312Z,995.61
2022-09-26T12:07:07.144Z,995.59
2022-09-26T12:08:07.000Z,995.56
2022-09-26T12:09:07.008Z,995.59
2022-09-26T12:10:07.721Z,995.50
2022-09-26T12:11:07.346Z,995.50
2022-09-26T12:12:07.543Z,995.49
2022-09-26T12:13:07.607Z,995.50
2022-09-26T12:14:07.331Z,995.48
2022-09-26T12:15:08.362Z,995.46
2022-09-26T12:16:06.982Z,995.44
2022-09-26T12:17:07.635Z,995.42
2022-09-26T12:18:06.827Z,995.41
2022-09-26T12:19:06.829Z,995.38
2022-09-26T12:20:06.897Z,995.37
2022-09-26T12:21:07.700Z,995.38
2022-09-26T12:22:06.878Z,995.37
2022-09-26T12:23:08.020Z,995.41
2022-09-26T12:24:06.914Z,995.39
2022-09-26T12:25:07.829Z,995.38
2022-09-26T12:26:06.759Z,995.39
2022-09-26T12:27:06.765Z,995.44